createdAt,value
2024-02-02T00:02:15.927Z,37.79
2024-02-02T00:04:43.165Z,37.78
2024-02-02T00:07:15.026Z,37.96
2024-02-02T00:09:43.932Z,37.81
2024-02-02T00:12:12.711Z,37.79
2024-02-02T00:14:39.980Z,37.57
2024-02-02T00:17:07.781Z,37.86
2024-02-02T00:19:35.372Z,37.68
2024-02-02T00:22:02.531Z,37.60
2024-02-02T00:24:29.811Z,37.69
2024-02-02T00:26:57.113Z,37.67
2024-02-02T00:29:24.280Z,37.53
2024-02-02T00:31:51.358Z,37.64
2024-02-02T00:34:18.758Z,37.70
2024-02-02T00:36:47.715Z,37.58
2024-02-02T00:39:14.905Z,37.72
2024-02-02T00:41:42.066Z,37.79
2024-02-02T00:44:09.911Z,37.35
2024-02-02T00:46:37.222Z,37.39
2024-02-02T00:49:04.499Z,37.31
2024-02-02T00:51:31.758Z,37.39
2024-02-02T00:53:58.771Z,37.23
2024-02-02T00:56:26.209Z,37.45
2024-02-02T00:58:53.489Z,37.33
2024-02-02T01:01:20.676Z,37.18
2024-02-02T01:03:48.299Z,37.21
2024-02-02T01:06:15.743Z,37.32
2024-02-02T01:08:42.839Z,37.05
2024-02-02T01:11:10.049Z,36.89
2024-02-02T01:13:39.890Z,37.09
2024-02-02T01:16:07.537Z,36.92
2024-02-02T01:18:34.953Z,37.03
2024-02-02T01:21:02.421Z,36.53
2024-02-02T01:23:29.480Z,36.90
2024-02-02T01:25:56.859Z,36.80
2024-02-02T01:28:24.017Z,36.97
2024-02-02T01:30:51.147Z,36.95
2024-02-02T01:33:18.743Z,36.80
2024-02-02T01:35:45.969Z,36.93
2024-02-02T01:38:13.039Z,36.82
2024-02-02T01:40:40.290Z,36.67
2024-02-02T01:43:07.357Z,36.79
2024-02-02T01:45:35.794Z,36.50
2024-02-02T01:48:03.866Z,36.74
2024-02-02T01:50:31.901Z,36.63
2024-02-02T01:52:58.998Z,36.51
2024-02-02T01:55:27.828Z,36.58
2024-02-02T01:57:55.639Z,36.61
2024-02-02T02:00:22.843Z,36.57
2024-02-02T02:02:50.018Z,36.61
2024-02-02T02:05:17.239Z,36.44
2024-02-02T02:07:45.777Z,36.40
2024-02-02T02:10:14.526Z,35.72
2024-02-02T02:12:41.910Z,36.12
2024-02-02T02:15:11.677Z,36.27
2024-02-02T02:17:40.211Z,36.11
2024-02-02T02:20:11.924Z,35.94
2024-02-02T02:22:39.216Z,35.91
2024-02-02T02:25:07.104Z,36.03
2024-02-02T02:27:34.289Z,35.84
2024-02-02T02:30:03.924Z,35.93
2024-02-02T02:32:31.663Z,36.06
2024-02-02T02:34:59.074Z,35.92
2024-02-02T02:37:26.222Z,35.85
2024-02-02T02:39:53.536Z,35.89
2024-02-02T02:42:21.578Z,35.79
2024-02-02T02:44:48.807Z,35.91
2024-02-02T02:47:15.976Z,35.90
2024-02-02T02:49:44.630Z,35.70
2024-02-02T02:52:11.737Z,35.85
2024-02-02T02:54:40.680Z,35.82
2024-02-02T02:57:07.720Z,35.97
2024-02-02T02:59:35.207Z,35.90
2024-02-02T03:02:02.637Z,35.76
2024-02-02T03:04:29.792Z,35.96
2024-02-02T03:06:56.914Z,35.72
2024-02-02T03:09:25.084Z,35.93
2024-02-02T03:11:52.275Z,35.69
2024-02-02T03:14:19.528Z,35.79
2024-02-02T03:16:46.755Z,35.60
2024-02-02T03:19:14.968Z,35.71
2024-02-02T03:21:42.205Z,35.75
2024-02-02T03:24:12.121Z,35.59
2024-02-02T03:26:39.629Z,35.48
2024-02-02T03:29:06.787Z,35.48
2024-02-02T03:31:33.811Z,35.53
2024-02-02T03:34:01.124Z,35.57
2024-02-02T03:36:29.001Z,35.67
2024-02-02T03:38:56.351Z,35.40
2024-02-02T03:41:23.543Z,35.73
2024-02-02T03:43:51.611Z,35.41
2024-02-02T03:46:18.726Z,35.55
2024-02-02T03:48:46.161Z,35.25
2024-02-02T03:51:13.633Z,35.43
2024-02-02T03:53:41.089Z,35.46
2024-02-02T03:56:08.543Z,35.32
2024-02-02T03:58:39.610Z,35.49
2024-02-02T04:01:07.441Z,35.27
2024-02-02T04:03:35.523Z,35.33
2024-02-02T04:06:02.896Z,35.38
2024-02-02T04:08:32.883Z,35.36
2024-02-02T04:11:00.039Z,35.38
2024-02-02T04:13:27.229Z,35.30
2024-02-02T04:15:54.313Z,35.18
2024-02-02T04:18:21.738Z,35.31
2024-02-02T04:20:50.293Z,34.90
2024-02-02T04:23:17.585Z,34.75
2024-02-02T04:25:44.759Z,35.16
2024-02-02T04:28:12.032Z,35.18
2024-02-02T04:30:39.160Z,35.09
2024-02-02T04:33:06.472Z,35.19
2024-02-02T04:35:36.488Z,35.11
2024-02-02T04:38:04.203Z,35.04
2024-02-02T04:40:31.866Z,35.21
2024-02-02T04:42:59.407Z,35.14
2024-02-02T04:45:26.701Z,35.11
2024-02-02T04:47:54.061Z,34.92
2024-02-02T04:50:23.757Z,35.08
2024-02-02T04:52:50.875Z,34.84
2024-02-02T04:55:18.259Z,34.85
2024-02-02T04:57:45.321Z,34.97
2024-02-02T05:00:13.534Z,34.88
2024-02-02T05:02:40.973Z,35.01
2024-02-02T05:05:08.410Z,34.89
2024-02-02T05:07:38.818Z,34.78
2024-02-02T05:10:07.383Z,34.73
2024-02-02T05:12:35.575Z,34.95
2024-02-02T05:15:03.449Z,34.85
2024-02-02T05:17:30.912Z,35.08
2024-02-02T05:19:58.527Z,34.86
2024-02-02T05:22:25.519Z,34.94
2024-02-02T05:24:52.747Z,31.86
2024-02-02T05:27:20.737Z,33.58
2024-02-02T05:29:50.561Z,34.06
2024-02-02T05:32:17.988Z,34.29
2024-02-02T05:34:45.271Z,34.39
2024-02-02T05:37:12.562Z,34.57
2024-02-02T05:39:40.065Z,34.55
2024-02-02T05:42:07.735Z,34.38
2024-02-02T05:44:34.999Z,34.63
2024-02-02T05:47:02.225Z,34.31
2024-02-02T05:49:29.619Z,34.19
2024-02-02T05:51:57.764Z,34.50
2024-02-02T05:54:26.548Z,34.48
2024-02-02T05:56:53.629Z,34.47
2024-02-02T05:59:22.387Z,34.65
2024-02-02T06:01:50.497Z,34.77
2024-02-02T06:04:17.742Z,34.40
2024-02-02T06:06:45.991Z,34.48
2024-02-02T06:09:15.365Z,34.65
2024-02-02T06:11:42.707Z,34.56
2024-02-02T06:14:09.971Z,34.63
2024-02-02T06:16:37.485Z,34.68
2024-02-02T06:19:04.985Z,35.00
2024-02-02T06:21:33.895Z,34.74
2024-02-02T06:24:01.374Z,34.66
2024-02-02T06:26:28.542Z,34.96
2024-02-02T06:28:56.112Z,34.67
2024-02-02T06:31:25.659Z,34.82
2024-02-02T06:33:53.239Z,35.19
2024-02-02T06:36:26.189Z,34.89
2024-02-02T06:38:57.698Z,34.89
2024-02-02T06:41:25.109Z,34.84
2024-02-02T06:43:52.296Z,34.87
2024-02-02T06:50:33.164Z,34.83
2024-02-02T06:57:19.169Z,34.93
2024-02-02T06:59:53.002Z,34.74
2024-02-02T07:02:31.923Z,34.94
2024-02-02T07:09:28.169Z,34.59
2024-02-02T07:12:00.259Z,34.90
2024-02-02T07:14:48.199Z,34.61
2024-02-02T07:17:41.941Z,34.94
2024-02-02T07:20:27.317Z,34.65
2024-02-02T07:22:57.238Z,34.82
2024-02-02T07:25:26.270Z,34.86
2024-02-02T07:27:53.875Z,34.82
2024-02-02T07:30:33.038Z,35.12
2024-02-02T07:33:01.502Z,35.17
2024-02-02T07:35:36.800Z,35.21
2024-02-02T07:38:09.492Z,34.59
2024-02-02T07:41:02.699Z,34.95
2024-02-02T07:43:34.678Z,35.33
2024-02-02T07:46:05.043Z,35.54
2024-02-02T07:48:34.937Z,35.46
2024-02-02T07:51:02.867Z,35.66
2024-02-02T07:53:30.087Z,35.73
2024-02-02T07:55:57.249Z,35.64
2024-02-02T07:58:24.422Z,35.46
2024-02-02T08:00:52.268Z,35.58
2024-02-02T08:03:19.855Z,35.50
2024-02-02T08:05:47.772Z,35.91
2024-02-02T08:08:15.730Z,35.86
2024-02-02T08:14:55.927Z,35.67
2024-02-02T08:17:23.064Z,35.78
2024-02-02T08:24:08.967Z,35.61
2024-02-02T08:26:37.167Z,35.57
2024-02-02T08:29:04.199Z,35.67
2024-02-02T08:35:37.626Z,35.85
2024-02-02T08:38:08.989Z,28.13
2024-02-02T08:40:42.250Z,31.18
2024-02-02T08:43:24.197Z,33.78
2024-02-02T08:46:08.001Z,34.42
2024-02-02T08:48:47.333Z,34.79
2024-02-02T08:51:25.324Z,35.05
2024-02-02T08:58:09.853Z,35.34
2024-02-02T09:00:40.915Z,35.33
2024-02-02T09:03:32.834Z,35.38
2024-02-02T09:06:02.765Z,35.28
2024-02-02T09:08:44.442Z,35.42
2024-02-02T09:11:19.698Z,35.69
2024-02-02T09:13:48.208Z,35.48
2024-02-02T09:24:27.235Z,35.40
2024-02-02T09:26:59.975Z,35.47
2024-02-02T09:29:27.827Z,35.37
2024-02-02T09:31:55.085Z,35.84
2024-02-02T09:34:27.807Z,35.60
2024-02-02T09:36:55.784Z,35.88
2024-02-02T09:39:38.626Z,35.84
2024-02-02T09:42:08.994Z,35.94
2024-02-02T09:44:47.011Z,33.71
2024-02-02T09:47:40.072Z,35.14
2024-02-02T09:50:07.661Z,35.28
2024-02-02T09:57:05.906Z,29.68
2024-02-02T09:59:39.123Z,31.96
2024-02-02T10:02:31.607Z,33.70
2024-02-02T10:05:24.534Z,34.37
2024-02-02T10:08:12.607Z,34.50
2024-02-02T10:11:11.193Z,34.52
2024-02-02T10:14:12.530Z,34.72
2024-02-02T10:17:09.145Z,35.08
2024-02-02T10:19:51.524Z,35.33
2024-02-02T10:22:28.625Z,35.29
2024-02-02T10:25:25.174Z,35.51
2024-02-02T10:27:59.960Z,35.61
2024-02-02T10:31:02.736Z,35.84
2024-02-02T10:34:11.935Z,35.70
2024-02-02T10:36:51.188Z,35.81
2024-02-02T10:39:32.271Z,35.11
2024-02-02T10:42:22.709Z,34.88
2024-02-02T10:45:28.930Z,31.15
2024-02-02T10:48:40.045Z,34.05
2024-02-02T10:51:22.495Z,34.45
2024-02-02T10:54:20.807Z,34.83
2024-02-02T10:57:30.507Z,35.22
2024-02-02T11:00:14.974Z,35.91
2024-02-02T11:03:00.576Z,35.72
2024-02-02T11:05:27.616Z,36.33
2024-02-02T11:08:03.008Z,36.12
2024-02-02T11:10:38.411Z,36.38
2024-02-02T11:13:26.751Z,36.47
2024-02-02T11:16:05.349Z,37.01
2024-02-02T11:18:35.273Z,36.74
2024-02-02T11:21:18.810Z,36.63
2024-02-02T11:24:03.837Z,36.82
2024-02-02T11:26:31.401Z,36.61
2024-02-02T11:29:15.296Z,36.79
2024-02-02T11:31:57.998Z,36.56
2024-02-02T11:34:36.284Z,36.93
2024-02-02T11:37:13.540Z,36.85
2024-02-02T11:40:06.109Z,36.70
2024-02-02T11:42:37.546Z,36.55
2024-02-02T11:45:07.327Z,36.37
2024-02-02T11:47:45.535Z,36.45
2024-02-02T11:50:18.118Z,36.40
2024-02-02T11:52:53.321Z,36.59
2024-02-02T11:55:27.985Z,36.66
2024-02-02T11:58:01.450Z,36.32
2024-02-02T12:00:41.535Z,36.54
2024-02-02T12:03:33.688Z,36.45
2024-02-02T12:06:14.877Z,36.31
2024-02-02T12:08:50.982Z,36.08
2024-02-02T12:11:29.212Z,36.13
2024-02-02T12:14:05.297Z,36.11
2024-02-02T12:16:33.017Z,36.35
2024-02-02T12:19:00.272Z,36.22
2024-02-02T12:21:27.707Z,36.17
2024-02-02T12:23:54.920Z,36.43
2024-02-02T12:30:46.599Z,36.37
2024-02-02T12:33:13.791Z,36.51
2024-02-02T12:35:43.674Z,36.62
2024-02-02T12:38:23.282Z,36.56
2024-02-02T12:40:51.328Z,36.73
2024-02-02T12:43:27.281Z,36.73
2024-02-02T12:45:54.931Z,36.79
2024-02-02T12:48:22.937Z,36.38
2024-02-02T12:50:52.960Z,36.48
2024-02-02T12:53:21.327Z,36.51
2024-02-02T12:55:48.545Z,36.64
2024-02-02T12:58:15.890Z,36.74
2024-02-02T13:00:43.228Z,36.64
2024-02-02T13:03:14.210Z,36.50
2024-02-02T13:05:41.612Z,36.55
2024-02-02T13:08:09.528Z,36.38
2024-02-02T13:10:36.609Z,36.38
2024-02-02T13:13:19.068Z,36.46
2024-02-02T13:15:46.952Z,36.17
2024-02-02T13:18:20.867Z,36.40
2024-02-02T13:20:50.651Z,36.27
2024-02-02T13:23:44.503Z,36.98
2024-02-02T13:26:12.568Z,36.45
2024-02-02T13:28:50.560Z,36.94
2024-02-02T13:31:20.619Z,36.74
2024-02-02T13:33:58.573Z,36.69
2024-02-02T13:36:33.365Z,36.72
2024-02-02T13:39:01.043Z,36.85
2024-02-02T13:41:37.715Z,36.86
2024-02-02T13:44:09.636Z,36.81
2024-02-02T13:46:47.337Z,36.53
2024-02-02T13:49:34.453Z,36.69
2024-02-02T13:52:06.364Z,36.74
2024-02-02T13:54:34.978Z,36.60
2024-02-02T13:57:02.796Z,36.45
2024-02-02T13:59:30.893Z,36.60
2024-02-02T14:02:06.176Z,36.53
2024-02-02T14:04:33.402Z,36.73
2024-02-02T14:07:01.615Z,35.73
2024-02-02T14:09:30.062Z,35.11
2024-02-02T14:12:04.165Z,34.13
2024-02-02T14:14:31.536Z,34.79
2024-02-02T14:17:02.608Z,35.37
2024-02-02T14:19:30.137Z,35.70
2024-02-02T14:22:08.585Z,35.83
2024-02-02T14:24:47.221Z,36.38
2024-02-02T14:27:15.753Z,36.41
2024-02-02T14:29:44.438Z,36.10
2024-02-02T14:32:12.758Z,36.06
2024-02-02T14:34:42.816Z,36.40
2024-02-02T14:37:12.424Z,36.34
2024-02-02T14:39:39.484Z,36.16
2024-02-02T14:42:06.986Z,36.45
2024-02-02T14:44:34.350Z,36.65
2024-02-02T14:47:02.352Z,36.61
2024-02-02T14:49:29.654Z,36.62
2024-02-02T14:51:57.099Z,36.61
2024-02-02T14:54:28.166Z,36.91
2024-02-02T14:56:55.766Z,36.88
2024-02-02T14:59:30.417Z,36.90
2024-02-02T15:01:59.680Z,36.97
2024-02-02T15:04:26.989Z,37.20
2024-02-02T15:06:54.499Z,36.99
2024-02-02T15:09:22.733Z,37.11
2024-02-02T15:11:51.149Z,37.23
2024-02-02T15:14:18.368Z,37.04
2024-02-02T15:16:45.639Z,37.44
2024-02-02T15:19:14.353Z,37.41
2024-02-02T15:21:41.616Z,37.30
2024-02-02T15:24:09.180Z,37.01
2024-02-02T15:26:40.145Z,37.38
2024-02-02T15:29:09.223Z,37.93
2024-02-02T15:31:36.420Z,37.82
2024-02-02T15:34:07.516Z,37.46
2024-02-02T15:36:36.714Z,36.36
2024-02-02T15:39:19.152Z,37.62
2024-02-02T15:41:54.382Z,37.89
2024-02-02T15:44:21.688Z,37.55
2024-02-02T15:46:48.889Z,38.03
2024-02-02T15:49:16.432Z,37.91
2024-02-02T15:51:43.650Z,38.21
2024-02-02T15:54:10.894Z,38.03
2024-02-02T15:56:38.283Z,37.88
2024-02-02T15:59:06.402Z,38.10
2024-02-02T16:01:34.101Z,38.29
2024-02-02T16:04:04.354Z,37.80
2024-02-02T16:06:32.709Z,37.88
2024-02-02T16:08:59.889Z,38.11
2024-02-02T16:11:27.020Z,37.80
2024-02-02T16:13:54.497Z,37.04
2024-02-02T16:16:26.798Z,37.50
2024-02-02T16:18:54.879Z,37.65
2024-02-02T16:21:22.244Z,38.00
2024-02-02T16:23:52.621Z,37.91
2024-02-02T16:26:20.112Z,38.12
2024-02-02T16:28:49.132Z,38.06
2024-02-02T16:31:16.360Z,38.00
2024-02-02T16:33:43.661Z,38.01
2024-02-02T16:36:10.831Z,38.27
2024-02-02T16:38:37.870Z,38.05
2024-02-02T16:41:05.037Z,38.40
2024-02-02T16:43:32.540Z,38.14
2024-02-02T16:45:59.528Z,38.20
2024-02-02T16:48:26.637Z,38.37
2024-02-02T16:50:56.390Z,38.19
2024-02-02T16:53:24.055Z,38.24
2024-02-02T16:55:51.318Z,38.45
2024-02-02T16:58:18.465Z,38.75
2024-02-02T17:00:45.666Z,38.77
2024-02-02T17:03:13.398Z,38.85
2024-02-02T17:05:40.765Z,38.57
2024-02-02T17:08:12.539Z,38.57
2024-02-02T17:10:40.055Z,38.62
2024-02-02T17:13:08.060Z,38.53
2024-02-02T17:15:35.950Z,38.61
2024-02-02T17:18:03.434Z,38.70
2024-02-02T17:20:30.481Z,38.52
2024-02-02T17:22:57.480Z,38.28
2024-02-02T17:25:24.924Z,38.44
2024-02-02T17:27:52.109Z,38.33
2024-02-02T17:30:23.424Z,38.23
2024-02-02T17:32:50.869Z,38.21
2024-02-02T17:35:18.140Z,38.57
2024-02-02T17:37:45.096Z,38.16
2024-02-02T17:40:14.974Z,38.12
2024-02-02T17:42:43.797Z,38.10
2024-02-02T17:45:10.907Z,38.34
2024-02-02T17:47:40.224Z,38.46
2024-02-02T17:50:08.185Z,38.15
2024-02-02T17:52:36.045Z,38.74
2024-02-02T17:55:03.409Z,38.61
2024-02-02T17:57:35.187Z,38.73
2024-02-02T18:00:02.648Z,39.05
2024-02-02T18:02:39.353Z,39.10
2024-02-02T18:05:06.823Z,38.48
2024-02-02T18:07:44.373Z,38.87
2024-02-02T18:10:15.293Z,39.27
2024-02-02T18:12:42.456Z,39.15
2024-02-02T18:15:11.326Z,39.21
2024-02-02T18:17:38.759Z,39.32
2024-02-02T18:20:06.478Z,39.33
2024-02-02T18:22:35.263Z,39.43
2024-02-02T18:25:05.089Z,39.28
2024-02-02T18:27:32.154Z,39.39
2024-02-02T18:30:00.749Z,39.35
2024-02-02T18:32:27.925Z,39.15
2024-02-02T18:34:55.162Z,39.26
2024-02-02T18:37:22.282Z,39.16
2024-02-02T18:39:49.438Z,39.09
2024-02-02T18:42:16.629Z,38.80
2024-02-02T18:44:43.604Z,38.80
2024-02-02T18:47:10.772Z,38.73
2024-02-02T18:49:38.650Z,38.68
2024-02-02T18:52:08.440Z,38.84
2024-02-02T18:54:35.745Z,38.97
2024-02-02T18:57:02.903Z,38.73
2024-02-02T18:59:30.174Z,38.73
2024-02-02T19:01:57.525Z,38.56
2024-02-02T19:04:24.686Z,38.42
2024-02-02T19:06:52.108Z,38.35
2024-02-02T19:09:23.111Z,38.48
2024-02-02T19:11:50.288Z,38.29
2024-02-02T19:14:19.828Z,38.30
2024-02-02T19:16:48.187Z,38.29
2024-02-02T19:19:17.049Z,38.56
2024-02-02T19:21:46.052Z,38.33
2024-02-02T19:24:16.470Z,38.32
2024-02-02T19:26:44.548Z,38.29
2024-02-02T19:29:11.669Z,38.06
2024-02-02T19:31:40.789Z,37.83
2024-02-02T19:34:08.496Z,37.96
2024-02-02T19:36:35.704Z,38.47
2024-02-02T19:39:03.475Z,38.66
2024-02-02T19:41:33.777Z,38.50
2024-02-02T19:44:01.210Z,38.63
2024-02-02T19:46:33.067Z,38.78
2024-02-02T19:49:02.552Z,38.92
2024-02-02T19:51:30.761Z,38.91
2024-02-02T19:53:58.340Z,38.79
2024-02-02T19:56:25.939Z,38.63
2024-02-02T19:58:53.102Z,38.47
2024-02-02T20:01:22.763Z,38.64
2024-02-02T20:03:52.854Z,38.48
2024-02-02T20:06:21.126Z,38.22
2024-02-02T20:08:49.386Z,38.36
2024-02-02T20:11:20.468Z,38.55
2024-02-02T20:13:49.029Z,38.01
2024-02-02T20:16:17.908Z,38.18
2024-02-02T20:18:45.341Z,37.87
2024-02-02T20:21:19.557Z,37.71
2024-02-02T20:23:49.687Z,37.89
2024-02-02T20:26:21.578Z,38.01
2024-02-02T20:28:53.437Z,37.79
2024-02-02T20:31:21.861Z,37.77
2024-02-02T20:33:52.873Z,37.84
2024-02-02T20:36:21.594Z,37.94
2024-02-02T20:38:49.212Z,37.89
2024-02-02T20:41:25.982Z,37.90
2024-02-02T20:43:54.861Z,37.97
2024-02-02T20:46:22.341Z,37.89
2024-02-02T20:48:50.821Z,38.09
2024-02-02T20:51:18.689Z,38.29
2024-02-02T20:53:48.085Z,38.54
2024-02-02T20:56:16.305Z,38.78
2024-02-02T20:58:43.589Z,38.98
2024-02-02T21:01:10.981Z,38.75
2024-02-02T21:03:38.409Z,38.78
2024-02-02T21:06:06.734Z,38.83
2024-02-02T21:08:34.305Z,38.61
2024-02-02T21:11:02.192Z,38.70
2024-02-02T21:13:29.489Z,38.62
2024-02-02T21:15:56.702Z,38.82
2024-02-02T21:18:29.006Z,38.52
2024-02-02T21:20:57.478Z,38.57
2024-02-02T21:23:24.980Z,38.59
2024-02-02T21:25:52.285Z,38.57
2024-02-02T21:28:20.688Z,38.58
2024-02-02T21:30:48.552Z,38.49
2024-02-02T21:33:19.950Z,38.64
2024-02-02T21:35:48.322Z,38.57
2024-02-02T21:38:15.938Z,38.58
2024-02-02T21:40:42.906Z,38.50
2024-02-02T21:43:10.346Z,38.44
2024-02-02T21:45:38.184Z,38.59
2024-02-02T21:48:06.212Z,38.26
2024-02-02T21:50:33.596Z,38.44
2024-02-02T21:53:00.662Z,38.31
2024-02-02T21:55:27.894Z,38.45
2024-02-02T21:57:55.295Z,38.57
2024-02-02T22:00:23.604Z,38.46
2024-02-02T22:02:50.797Z,38.35
2024-02-02T22:05:18.012Z,38.14
2024-02-02T22:07:45.236Z,38.33
2024-02-02T22:10:12.420Z,38.55
2024-02-02T22:12:40.404Z,38.28
2024-02-02T22:15:09.666Z,38.44
2024-02-02T22:17:37.129Z,38.14
2024-02-02T22:20:06.616Z,38.19
2024-02-02T22:22:35.147Z,38.13
2024-02-02T22:25:02.267Z,38.27
2024-02-02T22:27:34.951Z,38.08
2024-02-02T22:30:07.450Z,38.08
2024-02-02T22:32:34.901Z,38.02
2024-02-02T22:35:05.142Z,38.02
2024-02-02T22:37:32.342Z,38.13
2024-02-02T22:39:59.433Z,37.99
2024-02-02T22:42:28.169Z,37.95
2024-02-02T22:44:55.219Z,38.09
2024-02-02T22:47:22.382Z,38.00
2024-02-02T22:49:50.025Z,38.26
2024-02-02T22:52:19.133Z,38.22
2024-02-02T22:54:46.208Z,38.06
2024-02-02T22:57:13.377Z,38.13
2024-02-02T22:59:42.177Z,38.29
2024-02-02T23:02:12.973Z,38.09
2024-02-02T23:04:41.263Z,38.29
2024-02-02T23:07:09.190Z,38.02
2024-02-02T23:09:39.428Z,38.24
2024-02-02T23:12:06.990Z,38.14
2024-02-02T23:14:35.274Z,38.24
2024-02-02T23:17:02.482Z,38.09
2024-02-02T23:19:29.807Z,38.13
2024-02-02T23:21:56.979Z,37.96
2024-02-02T23:24:24.191Z,37.89
2024-02-02T23:26:51.331Z,38.08
2024-02-02T23:29:19.039Z,37.94
2024-02-02T23:31:47.504Z,38.12
2024-02-02T23:34:15.278Z,37.96
2024-02-02T23:36:42.342Z,37.90
2024-02-02T23:39:10.227Z,37.82
2024-02-02T23:41:37.740Z,37.85
2024-02-02T23:44:05.089Z,37.84
2024-02-02T23:46:32.238Z,38.14
2024-02-02T23:49:00.249Z,38.06
2024-02-02T23:51:27.598Z,38.08
2024-02-02T23:53:56.579Z,38.21
2024-02-02T23:56:25.146Z,38.12
2024-02-02T23:58:52.650Z,37.94
